createdAt,value
2023-03-11T00:02:21.062Z,7.49
2023-03-11T00:04:47.730Z,7.45
2023-03-11T00:07:14.270Z,7.26
2023-03-11T00:09:40.848Z,7.36
2023-03-11T00:12:08.010Z,7.35
2023-03-11T00:14:34.647Z,7.09
2023-03-11T00:17:01.208Z,7.21
2023-03-11T00:19:27.899Z,7.06
2023-03-11T00:21:54.548Z,7.04
2023-03-11T00:24:21.201Z,6.50
2023-03-11T00:26:47.843Z,7.08
2023-03-11T00:29:14.408Z,6.97
2023-03-11T00:31:40.926Z,6.94
2023-03-11T00:34:07.624Z,6.84
2023-03-11T00:36:34.372Z,7.00
2023-03-11T00:39:04.512Z,6.99
2023-03-11T00:41:31.092Z,7.09
2023-03-11T00:43:57.750Z,7.04
2023-03-11T00:46:24.568Z,7.01
2023-03-11T00:48:52.074Z,7.18
2023-03-11T00:51:19.246Z,7.05
2023-03-11T00:53:46.064Z,7.06
2023-03-11T00:56:14.816Z,7.22
2023-03-11T00:58:43.577Z,7.11
2023-03-11T01:01:13.003Z,7.23
2023-03-11T01:03:39.754Z,6.81
2023-03-11T01:06:06.786Z,7.28
2023-03-11T01:08:34.036Z,7.12
2023-03-11T01:11:00.998Z,7.26
2023-03-11T01:13:29.390Z,7.24
2023-03-11T01:15:57.077Z,7.21
2023-03-11T01:18:25.153Z,7.14
2023-03-11T01:20:52.395Z,7.22
2023-03-11T01:23:21.800Z,7.23
2023-03-11T01:25:48.900Z,7.21
2023-03-11T01:28:15.565Z,7.14
2023-03-11T01:30:43.105Z,7.00
2023-03-11T01:33:16.014Z,7.20
2023-03-11T01:35:43.857Z,7.15
2023-03-11T01:38:11.110Z,7.21
2023-03-11T01:40:44.629Z,7.15
2023-03-11T01:43:41.637Z,7.24
2023-03-11T01:46:16.269Z,7.21
2023-03-11T01:48:52.216Z,7.05
2023-03-11T01:51:30.412Z,7.19
2023-03-11T01:53:59.739Z,7.20
2023-03-11T01:56:26.549Z,7.02
2023-03-11T01:58:54.881Z,7.05
2023-03-11T02:01:22.712Z,7.14
2023-03-11T02:03:50.127Z,7.11
2023-03-11T02:06:23.921Z,7.05
2023-03-11T02:08:51.045Z,6.97
2023-03-11T02:11:26.595Z,6.96
2023-03-11T02:13:56.416Z,6.91
2023-03-11T02:16:23.244Z,6.84
2023-03-11T02:18:50.021Z,6.89
2023-03-11T02:21:22.489Z,6.90
2023-03-11T02:24:17.081Z,6.85
2023-03-11T02:27:09.517Z,6.78
2023-03-11T02:29:37.766Z,6.76
2023-03-11T02:32:10.330Z,6.77
2023-03-11T02:34:39.744Z,6.86
2023-03-11T02:37:08.922Z,6.80
2023-03-11T02:39:41.504Z,6.89
2023-03-11T02:42:15.545Z,6.86
2023-03-11T02:44:45.651Z,6.79
2023-03-11T02:47:12.879Z,6.43
2023-03-11T02:49:40.369Z,6.59
2023-03-11T02:52:07.255Z,6.51
2023-03-11T02:54:33.829Z,6.32
2023-03-11T02:57:00.528Z,6.11
2023-03-11T02:59:27.817Z,6.30
2023-03-11T03:01:54.526Z,6.07
2023-03-11T03:04:21.273Z,6.02
2023-03-11T03:06:48.080Z,6.21
2023-03-11T03:09:14.717Z,6.02
2023-03-11T03:11:41.279Z,6.11
2023-03-11T03:14:08.049Z,6.10
2023-03-11T03:16:34.668Z,6.03
2023-03-11T03:19:01.317Z,5.97
2023-03-11T03:21:28.144Z,5.90
2023-03-11T03:23:54.745Z,5.81
2023-03-11T03:26:21.273Z,5.69
2023-03-11T03:28:48.014Z,5.83
2023-03-11T03:31:14.624Z,5.84
2023-03-11T03:33:41.505Z,5.76
2023-03-11T03:36:10.792Z,5.74
2023-03-11T03:38:37.440Z,5.44
2023-03-11T03:41:05.176Z,5.49
2023-03-11T03:43:31.929Z,5.31
2023-03-11T03:46:01.062Z,5.25
2023-03-11T03:48:28.138Z,5.35
2023-03-11T03:50:56.282Z,5.33
2023-03-11T03:53:29.624Z,5.24
2023-03-11T03:55:56.346Z,5.17
2023-03-11T03:58:23.181Z,5.25
2023-03-11T04:00:49.758Z,5.14
2023-03-11T04:03:16.348Z,5.10
2023-03-11T04:05:42.973Z,5.14
2023-03-11T04:08:09.545Z,5.13
2023-03-11T04:10:36.191Z,5.16
2023-03-11T04:13:03.227Z,5.09
2023-03-11T04:15:29.772Z,4.96
2023-03-11T04:17:56.651Z,4.97
2023-03-11T04:20:23.290Z,4.82
2023-03-11T04:22:49.971Z,4.59
2023-03-11T04:25:16.829Z,4.75
2023-03-11T04:27:46.205Z,4.58
2023-03-11T04:30:13.496Z,4.72
2023-03-11T04:32:40.157Z,4.66
2023-03-11T04:35:07.087Z,4.67
2023-03-11T04:37:34.507Z,4.69
2023-03-11T04:40:01.292Z,4.26
2023-03-11T04:42:28.402Z,4.17
2023-03-11T04:44:55.028Z,4.21
2023-03-11T04:47:22.276Z,4.50
2023-03-11T04:49:48.936Z,4.20
2023-03-11T04:52:15.554Z,4.02
2023-03-11T04:54:42.348Z,4.02
2023-03-11T04:57:08.963Z,3.80
2023-03-11T04:59:35.596Z,3.82
2023-03-11T05:02:02.542Z,3.68
2023-03-11T05:04:29.241Z,3.72
2023-03-11T05:06:56.357Z,3.30
2023-03-11T05:09:23.074Z,3.47
2023-03-11T05:11:50.690Z,3.54
2023-03-11T05:14:17.353Z,3.12
2023-03-11T05:16:44.016Z,3.20
2023-03-11T05:19:37.008Z,3.19
2023-03-11T05:22:05.319Z,3.45
2023-03-11T05:24:32.297Z,2.92
2023-03-11T05:26:59.348Z,3.23
2023-03-11T05:29:26.504Z,3.07
2023-03-11T05:31:53.918Z,3.27
2023-03-11T05:34:20.497Z,3.02
2023-03-11T05:36:47.280Z,2.95
2023-03-11T05:39:14.356Z,3.10
2023-03-11T05:41:41.448Z,3.00
2023-03-11T05:44:08.201Z,2.84
2023-03-11T05:46:35.036Z,2.89
2023-03-11T05:49:02.452Z,2.86
2023-03-11T05:51:29.697Z,2.52
2023-03-11T05:53:56.892Z,2.68
2023-03-11T05:56:24.146Z,2.68
2023-03-11T05:58:51.088Z,2.71
2023-03-11T06:01:19.296Z,2.79
2023-03-11T06:03:45.909Z,2.72
2023-03-11T06:06:13.382Z,2.63
2023-03-11T06:08:52.156Z,2.54
2023-03-11T06:11:19.073Z,2.34
2023-03-11T06:13:45.698Z,2.38
2023-03-11T06:16:12.908Z,2.30
2023-03-11T06:18:39.625Z,2.24
2023-03-11T06:21:06.612Z,2.42
2023-03-11T06:23:33.175Z,2.37
2023-03-11T06:26:02.777Z,2.27
2023-03-11T06:28:29.636Z,2.17
2023-03-11T06:30:56.937Z,2.05
2023-03-11T06:33:24.487Z,1.77
2023-03-11T06:35:58.204Z,1.67
2023-03-11T06:38:25.237Z,1.39
2023-03-11T06:40:51.952Z,1.52
2023-03-11T06:43:19.170Z,1.11
2023-03-11T06:45:46.092Z,1.18
2023-03-11T06:48:12.885Z,1.20
2023-03-11T06:50:40.130Z,0.95
2023-03-11T06:53:07.838Z,0.99
2023-03-11T06:55:35.750Z,1.05
2023-03-11T06:58:02.988Z,0.85
2023-03-11T07:00:31.364Z,0.91
2023-03-11T07:02:58.205Z,0.97
2023-03-11T07:05:25.601Z,1.10
2023-03-11T07:07:54.827Z,1.00
2023-03-11T07:10:22.007Z,1.16
2023-03-11T07:12:48.683Z,1.01
2023-03-11T07:15:15.498Z,1.03
2023-03-11T07:17:42.060Z,1.01
2023-03-11T07:20:09.437Z,0.94
2023-03-11T07:22:36.003Z,0.95
2023-03-11T07:25:02.793Z,1.02
2023-03-11T07:27:29.466Z,1.04
2023-03-11T07:29:56.836Z,0.81
2023-03-11T07:32:23.640Z,0.94
2023-03-11T07:34:50.468Z,0.95
2023-03-11T07:37:17.045Z,0.96
2023-03-11T07:39:44.149Z,0.94
2023-03-11T07:42:10.717Z,0.85
2023-03-11T07:44:37.371Z,0.90
2023-03-11T07:47:05.713Z,0.92
2023-03-11T07:49:32.969Z,0.80
2023-03-11T07:51:59.758Z,0.60
2023-03-11T07:54:26.392Z,0.57
2023-03-11T07:56:53.080Z,0.62
2023-03-11T07:59:19.779Z,0.58
2023-03-11T08:01:47.527Z,0.23
2023-03-11T08:04:16.986Z,0.72
2023-03-11T08:06:46.408Z,0.70
2023-03-11T08:09:13.787Z,0.44
2023-03-11T08:11:40.720Z,0.41
2023-03-11T08:14:21.534Z,0.24
2023-03-11T08:16:48.247Z,0.32
2023-03-11T08:19:14.812Z,0.30
2023-03-11T08:21:41.415Z,0.46
2023-03-11T08:24:10.048Z,0.47
2023-03-11T08:26:36.670Z,0.48
2023-03-11T08:29:04.346Z,0.52
2023-03-11T08:31:33.297Z,0.57
2023-03-11T08:34:02.931Z,0.57
2023-03-11T08:36:30.873Z,0.54
2023-03-11T08:38:57.597Z,0.43
2023-03-11T08:41:25.166Z,0.43
2023-03-11T08:43:52.477Z,0.63
2023-03-11T08:46:28.581Z,0.64
2023-03-11T08:48:56.308Z,0.57
2023-03-11T08:51:24.416Z,0.57
2023-03-11T08:53:51.305Z,0.63
2023-03-11T08:56:18.802Z,0.59
2023-03-11T08:58:45.827Z,0.63
2023-03-11T09:01:13.488Z,0.58
2023-03-11T09:03:40.236Z,0.25
2023-03-11T09:06:16.262Z,0.25
2023-03-11T09:08:44.145Z,0.11
2023-03-11T09:11:13.623Z,0.27
2023-03-11T09:13:41.540Z,-0.03
2023-03-11T09:16:12.817Z,0.06
2023-03-11T09:18:39.560Z,-0.10
2023-03-11T09:21:06.386Z,0.14
2023-03-11T09:23:33.120Z,0.15
2023-03-11T09:25:59.737Z,0.16
2023-03-11T09:28:26.380Z,0.25
2023-03-11T09:30:53.388Z,0.44
2023-03-11T09:33:21.016Z,0.42
2023-03-11T09:35:47.643Z,0.44
2023-03-11T09:38:14.537Z,0.33
2023-03-11T09:41:02.962Z,0.58
2023-03-11T09:43:35.655Z,0.65
2023-03-11T09:46:46.376Z,0.60
2023-03-11T09:49:16.069Z,0.54
2023-03-11T09:52:04.316Z,0.40
2023-03-11T09:54:56.351Z,0.34
2023-03-11T09:57:28.354Z,0.09
2023-03-11T09:59:56.048Z,0.11
2023-03-11T10:02:28.137Z,-0.05
2023-03-11T10:05:12.437Z,-0.15
2023-03-11T10:07:46.170Z,-0.03
2023-03-11T10:10:14.659Z,0.02
2023-03-11T10:12:47.412Z,0.01
2023-03-11T10:15:17.118Z,-0.03
2023-03-11T10:18:16.196Z,-0.07
2023-03-11T10:21:08.515Z,-0.09
2023-03-11T10:23:42.877Z,0.01
2023-03-11T10:26:20.023Z,-0.15
2023-03-11T10:28:55.004Z,-0.20
2023-03-11T10:31:27.277Z,-0.25
2023-03-11T10:34:21.930Z,-0.33
2023-03-11T10:37:03.905Z,-0.27
2023-03-11T10:39:32.992Z,-0.32
2023-03-11T10:42:03.412Z,-0.38
2023-03-11T10:44:36.141Z,-0.34
2023-03-11T10:47:03.088Z,-0.53
2023-03-11T10:49:30.312Z,-0.43
2023-03-11T10:51:58.351Z,-0.38
2023-03-11T10:54:31.012Z,-0.42
2023-03-11T10:57:20.814Z,-0.33
2023-03-11T10:59:50.556Z,-0.35
2023-03-11T11:02:33.411Z,-0.33
2023-03-11T11:05:20.158Z,-0.26
2023-03-11T11:07:48.746Z,-0.27
2023-03-11T11:10:19.143Z,-0.27
2023-03-11T11:13:15.332Z,-0.31
2023-03-11T11:16:03.460Z,-0.29
2023-03-11T11:18:42.083Z,-0.24
2023-03-11T11:21:32.915Z,-0.17
2023-03-11T11:24:23.220Z,-0.19
2023-03-11T11:27:16.259Z,-0.29
2023-03-11T11:29:44.111Z,-0.11
2023-03-11T11:32:19.582Z,-0.13
2023-03-11T11:34:59.883Z,-0.01
2023-03-11T11:37:33.724Z,0.10
2023-03-11T11:40:11.754Z,0.03
2023-03-11T11:42:42.888Z,0.14
2023-03-11T11:45:34.638Z,0.15
2023-03-11T11:48:07.561Z,0.09
2023-03-11T11:50:56.611Z,-0.32
2023-03-11T11:53:40.461Z,-0.08
2023-03-11T11:56:07.133Z,-0.19
2023-03-11T11:58:35.093Z,-0.14
2023-03-11T12:01:05.107Z,-0.08
2023-03-11T12:03:55.020Z,-0.11
2023-03-11T12:06:37.292Z,-0.21
2023-03-11T12:09:15.191Z,-0.33
2023-03-11T12:11:49.637Z,-0.37
2023-03-11T12:14:34.594Z,-0.41
2023-03-11T12:17:04.418Z,-0.39
2023-03-11T12:19:48.027Z,-0.36
2023-03-11T12:22:35.681Z,-0.32
2023-03-11T12:25:23.250Z,-0.34
2023-03-11T12:28:09.323Z,-0.53
2023-03-11T12:30:45.235Z,-0.51
2023-03-11T12:33:18.761Z,-0.45
2023-03-11T12:36:06.031Z,-0.27
2023-03-11T12:38:49.164Z,-0.32
2023-03-11T12:41:15.657Z,-0.21
2023-03-11T12:43:42.245Z,-0.25
2023-03-11T12:46:10.241Z,-0.16
2023-03-11T12:48:49.743Z,-0.33
2023-03-11T12:51:34.492Z,-0.31
2023-03-11T12:54:31.194Z,-0.21
2023-03-11T12:57:26.221Z,-0.35
2023-03-11T13:00:18.299Z,-0.32
2023-03-11T13:03:06.537Z,-0.47
2023-03-11T13:05:59.901Z,-0.44
2023-03-11T13:08:28.830Z,-0.52
2023-03-11T13:10:56.483Z,-0.58
2023-03-11T13:13:29.578Z,-0.72
2023-03-11T13:15:56.714Z,-0.56
2023-03-11T13:18:28.808Z,-0.49
2023-03-11T13:20:57.376Z,-0.39
2023-03-11T13:23:37.765Z,-0.40
2023-03-11T13:26:28.828Z,-0.55
2023-03-11T13:29:16.529Z,-0.61
2023-03-11T13:31:51.303Z,-0.72
2023-03-11T13:34:36.410Z,-0.66
2023-03-11T13:37:21.756Z,-0.65
2023-03-11T13:39:58.891Z,-0.77
2023-03-11T13:42:32.420Z,-0.73
2023-03-11T13:44:59.886Z,-0.81
2023-03-11T13:47:28.951Z,-0.65
2023-03-11T13:50:03.852Z,-0.76
2023-03-11T13:52:47.089Z,-0.66
2023-03-11T13:55:40.469Z,-0.67
2023-03-11T13:58:21.251Z,-0.89
2023-03-11T14:00:53.153Z,-0.62
2023-03-11T14:03:23.118Z,-0.75
2023-03-11T14:05:59.968Z,-0.83
2023-03-11T14:08:35.935Z,-0.72
2023-03-11T14:11:17.195Z,-0.85
2023-03-11T14:13:49.984Z,-0.56
2023-03-11T14:16:33.950Z,-0.68
2023-03-11T14:19:17.455Z,-0.79
2023-03-11T14:21:50.718Z,-0.84
2023-03-11T14:24:30.047Z,-0.86
2023-03-11T14:27:00.122Z,-0.96
2023-03-11T14:29:38.059Z,-1.00
2023-03-11T14:32:31.008Z,-0.79
2023-03-11T14:34:58.009Z,-0.79
2023-03-11T14:37:26.239Z,-0.77
2023-03-11T14:39:54.031Z,-0.94
2023-03-11T14:42:29.732Z,-1.11
2023-03-11T14:45:20.472Z,-1.05
2023-03-11T14:47:48.385Z,-1.02
2023-03-11T14:50:21.389Z,-1.10
2023-03-11T14:52:50.827Z,-1.03
2023-03-11T14:55:27.521Z,-1.12
2023-03-11T14:58:00.631Z,-1.15
2023-03-11T15:00:37.192Z,-1.24
2023-03-11T15:03:17.226Z,-1.23
2023-03-11T15:05:57.017Z,-1.13
2023-03-11T15:08:28.573Z,-1.14
2023-03-11T15:11:03.119Z,-1.16
2023-03-11T15:13:30.180Z,-1.20
2023-03-11T15:15:58.527Z,-1.31
2023-03-11T15:18:29.981Z,-1.27
2023-03-11T15:21:07.271Z,-1.00
2023-03-11T15:23:37.157Z,-1.13
2023-03-11T15:26:06.876Z,-1.12
2023-03-11T15:28:37.323Z,-1.23
2023-03-11T15:31:22.048Z,-1.03
2023-03-11T15:33:51.763Z,-1.09
2023-03-11T15:36:33.720Z,-1.18
2023-03-11T15:39:14.164Z,-1.18
2023-03-11T15:41:42.392Z,-1.22
2023-03-11T15:44:56.933Z,-1.19
2023-03-11T15:47:23.809Z,-1.24
2023-03-11T15:49:50.819Z,-1.27
2023-03-11T15:52:20.162Z,-1.16
2023-03-11T15:54:55.494Z,-1.17
2023-03-11T15:57:29.595Z,-1.49
2023-03-11T15:59:58.846Z,-1.25
2023-03-11T16:02:28.087Z,-1.33
2023-03-11T16:04:58.321Z,-1.20
2023-03-11T16:07:39.154Z,-1.21
2023-03-11T16:10:08.236Z,-1.28
2023-03-11T16:12:37.702Z,-1.25
2023-03-11T16:15:05.256Z,-1.33
2023-03-11T16:17:48.567Z,-1.29
2023-03-11T16:20:16.571Z,-1.15
2023-03-11T16:22:43.368Z,-1.16
2023-03-11T16:25:21.734Z,-1.22
2023-03-11T16:27:50.760Z,-1.38
2023-03-11T16:30:18.323Z,-1.32
2023-03-11T16:32:45.033Z,-1.16
2023-03-11T16:35:12.326Z,-1.16
2023-03-11T16:37:39.932Z,-1.33
2023-03-11T16:40:07.366Z,-1.44
2023-03-11T16:42:34.109Z,-1.20
2023-03-11T16:45:02.827Z,-1.33
2023-03-11T16:47:31.578Z,-1.21
2023-03-11T16:49:59.314Z,-1.31
2023-03-11T16:52:26.000Z,-1.31
2023-03-11T16:54:53.552Z,-1.25
2023-03-11T16:57:20.678Z,-1.34
2023-03-11T16:59:47.310Z,-1.33
2023-03-11T17:02:15.426Z,-1.22
2023-03-11T17:04:42.094Z,-1.44
2023-03-11T17:07:09.435Z,-1.48
2023-03-11T17:09:36.597Z,-1.50
2023-03-11T17:12:04.169Z,-1.45
2023-03-11T17:14:32.287Z,-1.57
2023-03-11T17:16:59.520Z,-1.58
2023-03-11T17:19:26.653Z,-1.60
2023-03-11T17:21:53.257Z,-1.76
2023-03-11T17:24:20.023Z,-1.65
2023-03-11T17:26:46.719Z,-1.79
2023-03-11T17:29:13.322Z,-1.88
2023-03-11T17:31:39.932Z,-1.80
2023-03-11T17:34:06.588Z,-1.88
2023-03-11T17:36:33.190Z,-2.05
2023-03-11T17:38:59.990Z,-2.20
2023-03-11T17:41:26.681Z,-2.10
2023-03-11T17:43:53.308Z,-2.02
2023-03-11T17:46:22.718Z,-2.04
2023-03-11T17:48:50.426Z,-1.94
2023-03-11T17:51:20.288Z,-2.04
2023-03-11T17:53:48.625Z,-1.89
2023-03-11T17:56:17.542Z,-1.86
2023-03-11T17:58:44.674Z,-1.90
2023-03-11T18:01:16.227Z,-1.90
2023-03-11T18:03:43.052Z,-1.91
2023-03-11T18:06:10.760Z,-1.86
2023-03-11T18:08:40.643Z,-1.86
2023-03-11T18:11:11.697Z,-1.81
2023-03-11T18:13:39.085Z,-1.79
2023-03-11T18:16:08.966Z,-1.72
2023-03-11T18:18:36.948Z,-1.69
2023-03-11T18:21:09.438Z,-1.66
2023-03-11T18:23:36.381Z,-1.69
2023-03-11T18:26:06.220Z,-1.59
2023-03-11T18:28:33.345Z,-1.54
2023-03-11T18:31:11.031Z,-1.48
2023-03-11T18:33:38.263Z,-1.57
2023-03-11T18:36:17.161Z,-1.76
2023-03-11T18:38:43.965Z,-1.72
2023-03-11T18:41:10.580Z,-1.78
2023-03-11T18:43:37.632Z,-1.90
2023-03-11T18:46:12.059Z,-1.85
2023-03-11T18:48:39.757Z,-1.86
2023-03-11T18:51:08.469Z,-1.82
2023-03-11T18:53:35.884Z,-1.79
2023-03-11T18:56:05.340Z,-1.81
2023-03-11T18:58:33.222Z,-1.89
2023-03-11T19:01:07.790Z,-1.87
2023-03-11T19:03:34.815Z,-1.88
2023-03-11T19:06:02.436Z,-1.78
2023-03-11T19:08:29.205Z,-1.77
2023-03-11T19:10:56.310Z,-1.84
2023-03-11T19:13:23.004Z,-1.83
2023-03-11T19:15:49.771Z,-1.79
2023-03-11T19:18:20.610Z,-2.16
2023-03-11T19:20:55.716Z,-1.66
2023-03-11T19:23:22.314Z,-1.71
2023-03-11T19:26:02.461Z,-1.75
2023-03-11T19:28:29.823Z,-1.81
2023-03-11T19:30:58.389Z,-1.87
2023-03-11T19:33:26.218Z,-2.05
2023-03-11T19:35:54.669Z,-2.26
2023-03-11T19:38:24.044Z,-2.23
2023-03-11T19:41:13.563Z,-2.14
2023-03-11T19:43:40.972Z,-2.23
2023-03-11T19:46:10.564Z,-2.15
2023-03-11T19:48:37.503Z,-2.20
2023-03-11T19:51:05.979Z,-2.31
2023-03-11T19:53:33.220Z,-2.35
2023-03-11T19:56:05.228Z,-2.37
2023-03-11T19:58:32.363Z,-2.43
2023-03-11T20:01:00.293Z,-2.46
2023-03-11T20:03:27.262Z,-2.52
2023-03-11T20:05:56.614Z,-2.78
2023-03-11T20:08:24.821Z,-2.67
2023-03-11T20:10:53.191Z,-2.73
2023-03-11T20:13:21.573Z,-2.70
2023-03-11T20:15:48.824Z,-2.64
2023-03-11T20:18:16.002Z,-2.60
2023-03-11T20:20:45.138Z,-2.66
2023-03-11T20:23:13.432Z,-2.59
2023-03-11T20:25:41.192Z,-2.66
2023-03-11T20:28:17.920Z,-3.11
2023-03-11T20:30:44.713Z,-3.36
2023-03-11T20:33:12.388Z,-2.61
2023-03-11T20:35:39.077Z,-2.70
2023-03-11T20:38:05.811Z,-2.75
2023-03-11T20:40:32.649Z,-2.80
2023-03-11T20:42:59.270Z,-2.74
2023-03-11T20:45:26.106Z,-2.54
2023-03-11T20:47:54.036Z,-2.41
2023-03-11T20:50:21.659Z,-2.32
2023-03-11T20:52:48.637Z,-2.26
2023-03-11T20:55:19.171Z,-2.31
2023-03-11T20:57:45.805Z,-2.36
2023-03-11T21:00:15.782Z,-2.05
2023-03-11T21:02:44.184Z,-1.96
2023-03-11T21:05:16.132Z,-1.95
2023-03-11T21:07:44.538Z,-2.10
2023-03-11T21:10:13.257Z,-2.03
2023-03-11T21:12:45.872Z,-2.10
2023-03-11T21:15:13.535Z,-1.99
2023-03-11T21:17:40.566Z,-1.95
2023-03-11T21:20:08.120Z,-1.93
2023-03-11T21:22:37.383Z,-2.02
2023-03-11T21:25:08.413Z,-1.94
2023-03-11T21:27:38.215Z,-2.03
2023-03-11T21:30:07.228Z,-2.02
2023-03-11T21:32:40.616Z,-2.05
2023-03-11T21:35:13.881Z,-1.95
2023-03-11T21:37:42.544Z,-1.90
2023-03-11T21:40:25.650Z,-2.04
2023-03-11T21:42:55.195Z,-2.12
2023-03-11T21:45:22.516Z,-2.00
2023-03-11T21:48:03.208Z,-1.99
2023-03-11T21:50:34.003Z,-2.05
2023-03-11T21:53:04.148Z,-1.83
2023-03-11T21:55:35.970Z,-1.84
2023-03-11T21:58:03.427Z,-1.95
2023-03-11T22:00:32.026Z,-1.95
2023-03-11T22:02:58.941Z,-2.16
2023-03-11T22:05:26.560Z,-2.00
2023-03-11T22:07:53.397Z,-2.11
2023-03-11T22:10:20.184Z,-2.24
2023-03-11T22:12:46.917Z,-2.24
2023-03-11T22:15:13.773Z,-2.19
2023-03-11T22:17:40.707Z,-2.05
2023-03-11T22:20:08.458Z,-2.22
2023-03-11T22:22:35.431Z,-2.08
2023-03-11T22:25:04.106Z,-1.97
2023-03-11T22:27:31.660Z,-2.11
2023-03-11T22:29:58.362Z,-2.27
2023-03-11T22:32:25.207Z,-2.41
2023-03-11T22:34:52.003Z,-2.24
2023-03-11T22:37:18.704Z,-2.46
2023-03-11T22:39:47.365Z,-2.30
2023-03-11T22:42:15.153Z,-2.35
2023-03-11T22:44:41.714Z,-2.33
2023-03-11T22:47:10.315Z,-2.42
2023-03-11T22:49:37.970Z,-2.43
2023-03-11T22:52:04.774Z,-2.45
2023-03-11T22:54:32.417Z,-2.27
2023-03-11T22:56:59.102Z,-2.44
2023-03-11T22:59:30.622Z,-2.45
2023-03-11T23:01:57.221Z,-2.40
2023-03-11T23:04:24.037Z,-2.69
2023-03-11T23:06:50.954Z,-2.67
2023-03-11T23:09:17.745Z,-2.43
2023-03-11T23:11:44.464Z,-2.89
2023-03-11T23:14:11.143Z,-2.55
2023-03-11T23:16:38.235Z,-2.53
2023-03-11T23:19:05.017Z,-2.60
2023-03-11T23:21:32.679Z,-2.69
2023-03-11T23:24:02.328Z,-2.53
2023-03-11T23:26:30.363Z,-2.48
2023-03-11T23:28:58.571Z,-2.54
2023-03-11T23:31:26.336Z,-2.31
2023-03-11T23:33:53.472Z,-2.53
2023-03-11T23:36:22.194Z,-2.38
2023-03-11T23:38:50.906Z,-2.38
2023-03-11T23:41:19.917Z,-2.49
2023-03-11T23:43:51.072Z,-2.47
2023-03-11T23:46:18.144Z,-2.68
2023-03-11T23:48:44.902Z,-2.84
2023-03-11T23:51:11.772Z,-2.89
2023-03-11T23:53:39.530Z,-2.88
2023-03-11T23:56:12.246Z,-2.69
2023-03-11T23:58:38.777Z,-2.95
